Time;durP1;ratioP1;P1;durP2;ratioP2;P2;SDS_P1;SDS_P2;PMS_P1;PMS_P2;Temp;Humidity;BMP_temperature;BMP_pressure;BME280_temperature;BME280_humidity;BME280_pressure;Samples;Min_cycle;Max_cycle;Signal;HPM_P1;HPM_P2
2021/10/23 00:01:56;;;;;;;12.27;2.35;;;4.00;99.90;;;;;;4977832;28;20382;-69
2021/10/23 00:04:24;;;;;;;16.35;2.60;;;4.00;99.90;;;;;;4978152;28;20027;-69
2021/10/23 00:06:54;;;;;;;9.63;1.63;;;4.00;99.90;;;;;;4977612;28;20050;-69
2021/10/23 00:09:22;;;;;;;16.98;4.32;;;3.90;99.90;;;;;;4977552;28;20106;-69
2021/10/23 00:11:49;;;;;;;10.50;1.90;;;3.80;99.90;;;;;;4977645;28;20103;-69
2021/10/23 00:14:16;;;;;;;16.92;3.38;;;3.80;99.90;;;;;;4977641;28;20019;-69
2021/10/23 00:16:44;;;;;;;17.08;2.42;;;3.70;99.90;;;;;;4977997;28;20395;-69
2021/10/23 00:19:12;;;;;;;18.17;2.72;;;3.60;99.90;;;;;;4977561;28;20030;-69
2021/10/23 00:21:39;;;;;;;13.05;2.38;;;3.60;99.90;;;;;;4977829;28;20320;-69
2021/10/23 00:24:07;;;;;;;5.30;1.80;;;3.50;99.90;;;;;;4979100;28;20415;-69
2021/10/23 00:26:34;;;;;;;11.25;2.20;;;3.40;99.90;;;;;;4978897;28;20023;-69
2021/10/23 00:29:02;;;;;;;13.25;4.10;;;3.40;99.90;;;;;;4978281;28;20053;-69
2021/10/23 00:31:29;;;;;;;14.75;2.25;;;3.30;99.90;;;;;;4978303;28;20435;-69
2021/10/23 00:33:57;;;;;;;7.68;2.03;;;3.20;99.90;;;;;;4978801;28;20034;-69
2021/10/23 00:36:24;;;;;;;13.02;2.35;;;3.10;99.90;;;;;;4978357;28;20371;-69
2021/10/23 00:38:52;;;;;;;14.40;1.90;;;3.10;99.90;;;;;;4978796;28;20407;-69
2021/10/23 00:41:19;;;;;;;12.35;3.25;;;3.00;99.90;;;;;;4960870;28;20037;-69
2021/10/23 00:43:47;;;;;;;13.93;2.40;;;2.90;99.90;;;;;;4977322;28;20019;-69
2021/10/23 00:46:15;;;;;;;15.70;4.13;;;2.90;99.90;;;;;;4977174;28;20027;-69
2021/10/23 00:48:44;;;;;;;13.02;2.17;;;2.80;99.90;;;;;;4977638;28;20109;-69
2021/10/23 00:51:15;;;;;;;15.35;2.47;;;2.80;99.90;;;;;;4977247;28;20070;-69
2021/10/23 00:53:44;;;;;;;12.13;2.65;;;2.80;99.90;;;;;;4977284;28;20122;-69
2021/10/23 00:56:11;;;;;;;15.15;2.08;;;2.70;99.90;;;;;;4977743;28;20408;-69
2021/10/23 00:58:39;;;;;;;12.63;3.17;;;2.70;99.90;;;;;;4960905;28;20027;-69
2021/10/23 01:01:06;;;;;;;15.65;3.28;;;2.60;99.90;;;;;;4977367;28;20027;-69
2021/10/23 01:03:33;;;;;;;13.80;1.95;;;2.60;99.90;;;;;;4977141;28;20300;-69
2021/10/23 01:06:01;;;;;;;11.68;2.20;;;2.60;99.90;;;;;;4960715;28;20050;-69
2021/10/23 01:08:29;;;;;;;16.15;2.50;;;2.50;99.90;;;;;;4960912;28;20038;-69
2021/10/23 01:10:56;;;;;;;18.33;2.72;;;2.50;99.90;;;;;;4978501;28;20479;-69
2021/10/23 01:13:24;;;;;;;18.23;3.30;;;2.50;99.90;;;;;;4960788;28;20027;-69
2021/10/23 01:15:51;;;;;;;14.98;2.22;;;2.50;99.90;;;;;;4977845;28;20466;-69
2021/10/23 01:18:18;;;;;;;11.98;2.42;;;2.50;99.90;;;;;;4978576;28;20364;-69
2021/10/23 01:20:46;;;;;;;14.65;2.60;;;2.50;99.90;;;;;;4978156;28;20086;-69
2021/10/23 01:23:14;;;;;;;18.95;2.92;;;2.50;99.90;;;;;;4980062;28;20019;-69
2021/10/23 01:25:41;;;;;;;11.02;2.08;;;2.50;99.90;;;;;;4963539;28;20031;-69
2021/10/23 01:28:08;;;;;;;11.32;2.80;;;2.50;99.90;;;;;;4980422;28;20031;-69
2021/10/23 01:30:36;;;;;;;21.02;2.70;;;2.50;99.90;;;;;;4980223;28;20027;-69
2021/10/23 01:33:04;;;;;;;22.90;3.35;;;2.50;99.90;;;;;;4980288;28;20015;-69
2021/10/23 01:35:32;;;;;;;11.93;2.50;;;2.50;99.90;;;;;;4980486;28;20023;-69
2021/10/23 01:37:59;;;;;;;23.33;3.45;;;2.50;99.90;;;;;;4980268;28;20121;-69
2021/10/23 01:40:33;;;;;;;12.40;2.97;;;2.50;99.90;;;;;;4980667;28;20023;-69
2021/10/23 01:43:02;;;;;;;12.20;2.53;;;2.50;99.90;;;;;;4980083;28;20057;-69
2021/10/23 01:45:30;;;;;;;16.10;3.05;;;2.50;99.90;;;;;;4980591;28;20050;-69
2021/10/23 01:47:57;;;;;;;24.80;3.38;;;2.50;99.90;;;;;;4980376;28;20023;-69
2021/10/23 01:50:27;;;;;;;13.98;2.88;;;2.40;99.90;;;;;;4980847;28;20038;-69
2021/10/23 01:52:56;;;;;;;12.57;3.00;;;2.40;99.90;;;;;;4981408;28;20090;-69
2021/10/23 01:55:23;;;;;;;19.67;3.45;;;2.40;99.90;;;;;;4980789;28;20027;-69
2021/10/23 01:57:52;;;;;;;17.08;3.58;;;2.30;99.90;;;;;;4980917;28;20038;-69
2021/10/23 02:00:19;;;;;;;22.13;3.92;;;2.30;99.90;;;;;;4980663;28;20082;-69
2021/10/23 02:02:47;;;;;;;16.15;3.67;;;2.30;99.90;;;;;;4980650;28;20439;-69
2021/10/23 02:05:15;;;;;;;18.55;3.60;;;2.20;99.90;;;;;;4981101;28;20027;-69
2021/10/23 02:07:42;;;;;;;17.20;3.55;;;2.20;99.90;;;;;;4963372;28;20031;-69
2021/10/23 02:10:10;;;;;;;20.33;4.25;;;2.30;99.90;;;;;;4979609;28;20019;-69
2021/10/23 02:12:38;;;;;;;23.23;3.60;;;2.40;99.90;;;;;;4980122;28;20023;-69
2021/10/23 02:15:07;;;;;;;17.98;3.75;;;2.50;99.90;;;;;;4979457;28;20027;-69
2021/10/23 02:17:35;;;;;;;19.65;4.50;;;2.50;99.90;;;;;;4979560;28;20085;-69
2021/10/23 02:20:04;;;;;;;16.13;3.65;;;2.60;99.90;;;;;;4979676;28;20050;-69
2021/10/23 02:22:31;;;;;;;29.30;5.72;;;2.60;99.90;;;;;;4979431;28;20027;-69
2021/10/23 02:24:59;;;;;;;22.88;4.15;;;2.60;99.90;;;;;;4979372;28;20023;-69
2021/10/23 02:27:26;;;;;;;18.60;4.68;;;2.60;99.90;;;;;;4979911;28;20026;-69
2021/10/23 02:29:53;;;;;;;31.30;5.82;;;2.70;99.90;;;;;;4979767;28;20019;-69
2021/10/23 02:32:21;;;;;;;19.55;4.53;;;2.80;99.90;;;;;;4962619;28;20085;-69
2021/10/23 02:34:49;;;;;;;25.27;4.90;;;2.80;99.90;;;;;;4980158;28;20015;-69
2021/10/23 02:37:17;;;;;;;22.13;5.22;;;2.90;99.90;;;;;;4979640;28;20110;-69
2021/10/23 02:39:44;;;;;;;14.20;4.50;;;2.90;99.90;;;;;;4979993;28;20033;-69
2021/10/23 02:42:12;;;;;;;21.63;4.05;;;2.90;99.90;;;;;;4979928;28;20029;-69
2021/10/23 02:44:39;;;;;;;24.02;5.32;;;2.90;99.90;;;;;;4980391;28;20058;-69
2021/10/23 02:47:07;;;;;;;25.45;4.80;;;2.90;99.90;;;;;;4946621;28;20374;-69
2021/10/23 02:49:35;;;;;;;23.30;5.35;;;2.80;99.90;;;;;;4980429;28;20023;-69
2021/10/23 02:52:02;;;;;;;21.13;4.93;;;2.80;99.90;;;;;;4979113;28;20019;-69
2021/10/23 02:54:30;;;;;;;20.17;4.93;;;2.70;99.90;;;;;;4978807;28;20027;-69
2021/10/23 02:56:57;;;;;;;17.30;4.85;;;2.70;99.90;;;;;;4978792;28;20023;-69
2021/10/23 02:59:25;;;;;;;21.95;4.60;;;2.70;99.90;;;;;;4978896;28;20038;-69
2021/10/23 03:01:52;;;;;;;18.63;4.13;;;2.60;99.90;;;;;;4961606;28;20023;-69
2021/10/23 03:04:20;;;;;;;22.75;4.78;;;2.60;99.90;;;;;;4978573;28;20027;-69
2021/10/23 03:06:48;;;;;;;22.50;4.35;;;2.50;99.90;;;;;;4979065;28;20034;-69
2021/10/23 03:09:16;;;;;;;21.33;5.57;;;2.50;99.90;;;;;;4961281;28;20027;-69
2021/10/23 03:11:43;;;;;;;21.52;4.53;;;2.40;99.90;;;;;;4978632;28;20110;-69
2021/10/23 03:14:11;;;;;;;22.80;4.97;;;2.40;99.90;;;;;;4979421;28;20349;-69
2021/10/23 03:16:38;;;;;;;29.52;6.90;;;2.40;99.90;;;;;;4979606;28;20030;-69
2021/10/23 03:19:05;;;;;;;29.48;5.60;;;2.40;99.90;;;;;;4979749;28;20027;-69
2021/10/23 03:21:33;;;;;;;17.02;4.53;;;2.30;99.90;;;;;;4979864;28;20027;-69
2021/10/23 03:24:01;;;;;;;29.25;5.72;;;2.30;99.90;;;;;;4979213;28;20027;-69
2021/10/23 03:26:28;;;;;;;22.23;6.05;;;2.30;99.90;;;;;;4962021;28;20031;-69
2021/10/23 03:28:57;;;;;;;32.38;5.45;;;2.40;99.90;;;;;;4979513;28;20026;-69
2021/10/23 03:31:27;;;;;;;26.70;5.78;;;2.40;99.90;;;;;;4979461;28;20086;-69
2021/10/23 03:33:55;;;;;;;21.90;6.10;;;2.40;99.90;;;;;;4979223;28;20029;-69
2021/10/23 03:36:22;;;;;;;20.80;6.30;;;2.50;99.90;;;;;;4978275;28;20022;-70
2021/10/23 03:38:49;;;;;;;23.00;5.80;;;2.50;99.90;;;;;;4978610;28;20030;-69
2021/10/23 03:41:17;;;;;;;25.30;7.10;;;2.50;99.90;;;;;;4960813;28;20038;-69
2021/10/23 03:43:44;;;;;;;34.03;6.10;;;2.50;99.90;;;;;;4960980;28;20026;-69
2021/10/23 03:46:12;;;;;;;20.00;6.57;;;2.50;99.90;;;;;;4977649;28;20054;-69
2021/10/23 03:48:39;;;;;;;29.65;6.95;;;2.50;99.90;;;;;;4978114;28;20026;-69
2021/10/23 03:51:06;;;;;;;29.17;6.75;;;2.50;99.90;;;;;;4977848;28;20019;-69
2021/10/23 03:53:33;;;;;;;23.08;6.63;;;2.50;99.90;;;;;;4977829;28;20046;-69
2021/10/23 03:56:01;;;;;;;30.02;8.60;;;2.50;99.90;;;;;;4978319;28;20019;-69
2021/10/23 03:58:28;;;;;;;30.15;7.35;;;2.50;99.90;;;;;;4979090;28;20019;-69
2021/10/23 04:00:56;;;;;;;28.25;7.88;;;2.50;99.90;;;;;;4979093;28;20031;-69
2021/10/23 04:03:23;;;;;;;24.10;7.10;;;2.50;99.90;;;;;;4978606;28;20019;-69
2021/10/23 04:05:51;;;;;;;32.53;7.32;;;2.50;99.90;;;;;;4961438;28;20397;-69
2021/10/23 04:08:18;;;;;;;32.75;6.65;;;2.40;99.90;;;;;;4979095;28;20027;-69
2021/10/23 04:10:45;;;;;;;26.40;6.72;;;2.40;99.90;;;;;;4978568;28;20033;-69
2021/10/23 04:13:14;;;;;;;33.17;8.80;;;2.40;99.90;;;;;;4961303;28;20022;-69
2021/10/23 04:15:42;;;;;;;24.55;7.15;;;2.30;99.90;;;;;;4978922;28;20065;-69
2021/10/23 04:18:09;;;;;;;35.17;6.90;;;2.30;99.90;;;;;;4978044;28;20050;-69
2021/10/23 04:20:37;;;;;;;34.72;7.25;;;2.30;99.90;;;;;;4978022;28;20419;-69
2021/10/23 04:23:05;;;;;;;36.42;8.45;;;2.30;99.90;;;;;;4977810;28;20056;-69
2021/10/23 04:25:33;;;;;;;31.45;6.93;;;2.20;99.90;;;;;;4977490;28;20054;-69
2021/10/23 04:28:00;;;;;;;29.35;8.25;;;2.20;99.90;;;;;;4978078;28;20375;-69
2021/10/23 04:30:27;;;;;;;37.78;8.88;;;2.10;99.90;;;;;;4960253;28;20019;-69
2021/10/23 04:32:55;;;;;;;30.52;7.63;;;2.10;99.90;;;;;;4977417;28;20069;-69
2021/10/23 04:35:22;;;;;;;43.85;9.77;;;2.00;99.90;;;;;;4977363;28;20323;-69
2021/10/23 04:37:50;;;;;;;34.78;8.45;;;2.00;99.90;;;;;;4957048;29;20142;-69
2021/10/23 04:40:18;;;;;;;37.60;7.78;;;2.00;99.90;;;;;;4958356;29;20032;-69
2021/10/23 04:42:45;;;;;;;36.83;8.43;;;2.00;99.90;;;;;;4959511;28;20055;-69
2021/10/23 04:45:12;;;;;;;38.05;7.90;;;2.00;99.90;;;;;;4959410;29;20026;-69
2021/10/23 04:47:40;;;;;;;38.75;8.43;;;1.90;99.90;;;;;;4958976;28;20027;-69
2021/10/23 04:50:07;;;;;;;34.92;8.20;;;1.90;99.90;;;;;;4958915;28;20023;-69
2021/10/23 04:52:35;;;;;;;35.45;8.73;;;1.90;99.90;;;;;;4958873;28;20027;-69
2021/10/23 04:55:03;;;;;;;37.92;9.45;;;1.90;99.90;;;;;;4959385;28;20031;-69
2021/10/23 04:57:31;;;;;;;38.38;8.57;;;1.80;99.90;;;;;;4961464;28;20032;-69
2021/10/23 04:59:59;;;;;;;38.55;10.02;;;1.80;99.90;;;;;;4962885;28;20027;-69
2021/10/23 05:02:26;;;;;;;42.70;9.55;;;1.80;99.90;;;;;;4961483;28;20050;-69
2021/10/23 05:04:53;;;;;;;41.30;8.75;;;1.80;99.90;;;;;;4961553;28;20031;-69
2021/10/23 05:07:21;;;;;;;36.97;8.15;;;1.80;99.90;;;;;;4961337;28;20035;-70
2021/10/23 05:09:48;;;;;;;35.65;8.80;;;1.80;99.90;;;;;;4960324;29;20416;-70
2021/10/23 05:12:15;;;;;;;31.52;8.93;;;1.80;99.90;;;;;;4960285;29;20332;-69
2021/10/23 05:14:42;;;;;;;52.05;9.50;;;1.80;99.90;;;;;;4960294;29;20024;-70
2021/10/23 05:17:09;;;;;;;31.02;8.80;;;1.80;99.90;;;;;;4960188;28;20324;-70
2021/10/23 05:19:37;;;;;;;36.17;8.40;;;1.80;99.90;;;;;;4961466;28;20081;-70
2021/10/23 05:22:04;;;;;;;44.35;8.95;;;1.70;99.90;;;;;;4961518;28;20031;-70
2021/10/23 05:24:33;;;;;;;48.03;8.95;;;1.70;99.90;;;;;;4962076;28;20423;-70
2021/10/23 05:27:01;;;;;;;42.08;8.73;;;1.80;99.90;;;;;;4961978;28;20046;-69
2021/10/23 05:29:28;;;;;;;38.72;8.85;;;1.70;99.90;;;;;;4961986;28;20019;-69
2021/10/23 05:31:57;;;;;;;56.47;10.98;;;1.80;99.90;;;;;;4962551;28;20019;-70
2021/10/23 05:34:24;;;;;;;48.78;10.15;;;1.80;99.90;;;;;;4962347;29;20019;-70
2021/10/23 05:36:53;;;;;;;37.53;9.50;;;1.80;99.90;;;;;;4967800;28;20533;-70
2021/10/23 05:39:20;;;;;;;42.33;9.25;;;1.90;99.90;;;;;;4980994;28;20041;-70
2021/10/23 05:41:48;;;;;;;46.13;10.02;;;1.90;99.90;;;;;;4981650;28;20023;-70
2021/10/23 05:44:16;;;;;;;45.13;10.27;;;2.00;99.90;;;;;;4980639;28;20018;-70
2021/10/23 05:46:43;;;;;;;41.03;11.32;;;2.10;99.90;;;;;;4980550;28;20433;-70
2021/10/23 05:49:11;;;;;;;42.72;10.05;;;2.20;99.90;;;;;;4980535;28;20070;-70
2021/10/23 05:51:38;;;;;;;47.10;12.35;;;2.20;99.90;;;;;;4963013;28;20431;-70
2021/10/23 05:54:06;;;;;;;40.70;10.38;;;2.30;99.90;;;;;;4980469;28;20058;-70
2021/10/23 05:56:34;;;;;;;45.63;11.00;;;2.40;99.90;;;;;;4980172;28;20030;-71
2021/10/23 05:59:12;;;;;;;57.47;12.85;;;2.50;99.90;;;;;;4979881;28;20065;-71
2021/10/23 06:01:42;;;;;;;51.25;11.98;;;2.50;99.90;;;;;;4962601;28;20030;-72
2021/10/23 06:04:09;;;;;;;49.83;11.35;;;2.60;99.90;;;;;;4979737;28;20027;-73
2021/10/23 06:06:37;;;;;;;47.70;12.63;;;2.70;99.90;;;;;;4980550;28;20483;-72
2021/10/23 06:09:05;;;;;;;56.92;12.82;;;2.70;99.90;;;;;;4979737;28;20027;-72
2021/10/23 06:11:33;;;;;;;46.97;12.05;;;2.80;99.90;;;;;;4963459;28;20022;-72
2021/10/23 06:14:03;;;;;;;46.72;13.25;;;2.80;99.90;;;;;;4963341;28;20037;-72
2021/10/23 06:16:31;;;;;;;39.17;11.40;;;2.90;99.90;;;;;;4980597;28;20113;-75
2021/10/23 06:18:58;;;;;;;51.90;10.95;;;2.90;99.90;;;;;;4980753;28;20359;-74
2021/10/23 06:21:25;;;;;;;48.78;12.10;;;3.00;99.90;;;;;;4979734;28;20034;-74
2021/10/23 06:23:52;;;;;;;52.72;13.73;;;3.00;99.90;;;;;;4979627;28;20113;-74
2021/10/23 06:26:20;;;;;;;51.65;12.90;;;3.00;99.90;;;;;;4962274;28;20402;-76
2021/10/23 06:28:47;;;;;;;52.58;11.57;;;3.00;99.90;;;;;;4979546;28;20051;-74
2021/10/23 06:31:15;;;;;;;44.95;11.95;;;3.00;99.90;;;;;;4979243;28;20031;-74
2021/10/23 06:33:43;;;;;;;46.20;12.18;;;3.00;99.90;;;;;;4979764;28;20019;-74
2021/10/23 06:36:10;;;;;;;56.42;13.80;;;3.00;99.90;;;;;;4961912;28;20364;-75
2021/10/23 06:38:38;;;;;;;56.10;13.60;;;3.00;99.90;;;;;;4961927;28;20049;-75
2021/10/23 06:41:05;;;;;;;49.13;12.95;;;3.00;99.90;;;;;;4961900;28;20052;-75
2021/10/23 06:43:33;;;;;;;51.72;12.73;;;3.00;99.90;;;;;;4979053;28;20427;-72
2021/10/23 06:46:01;;;;;;;39.55;12.68;;;3.00;99.90;;;;;;4979372;28;20419;-73
2021/10/23 06:48:28;;;;;;;44.50;12.75;;;3.00;99.90;;;;;;4979449;28;20046;-73
2021/10/23 06:50:56;;;;;;;43.88;12.73;;;3.00;99.90;;;;;;4979801;28;20034;-74
2021/10/23 06:53:24;;;;;;;49.63;14.23;;;3.10;99.90;;;;;;4962534;28;20169;-71
2021/10/23 06:55:52;;;;;;;64.63;15.23;;;3.10;99.90;;;;;;4979980;28;20077;-72
2021/10/23 06:58:19;;;;;;;57.53;14.52;;;3.20;99.90;;;;;;4980140;28;20022;-74
2021/10/23 07:00:47;;;;;;;46.22;13.88;;;3.20;99.90;;;;;;4962385;28;20033;-69
2021/10/23 07:03:17;;;;;;;57.90;15.75;;;3.30;99.90;;;;;;4979612;28;20045;-69
2021/10/23 07:05:45;;;;;;;55.38;15.90;;;3.30;99.90;;;;;;4980019;28;20038;-69
2021/10/23 07:08:13;;;;;;;61.65;15.63;;;3.40;99.90;;;;;;4979597;28;20106;-69
2021/10/23 07:10:40;;;;;;;59.10;15.38;;;3.40;99.90;;;;;;4961337;28;20031;-69
2021/10/23 07:13:09;;;;;;;55.70;16.30;;;3.50;99.90;;;;;;4978957;28;20015;-70
2021/10/23 07:15:37;;;;;;;49.55;14.23;;;3.60;99.90;;;;;;4978857;28;20022;-76
2021/10/23 07:18:05;;;;;;;57.58;15.77;;;3.80;99.90;;;;;;4961603;28;20409;-66
2021/10/23 07:20:33;;;;;;;49.63;16.30;;;4.00;99.90;;;;;;4978685;28;20065;-66
2021/10/23 07:23:00;;;;;;;51.65;15.27;;;4.20;99.90;;;;;;4979940;28;20077;-68
2021/10/23 07:25:28;;;;;;;62.67;17.40;;;4.30;99.90;;;;;;4979232;28;20027;-69
2021/10/23 07:27:56;;;;;;;54.30;15.60;;;4.50;99.90;;;;;;4979120;28;20117;-68
2021/10/23 07:30:24;;;;;;;51.92;16.20;;;4.70;99.90;;;;;;4961847;28;20023;-67
2021/10/23 07:32:51;;;;;;;41.42;13.65;;;4.80;99.90;;;;;;4961985;28;20031;-68
2021/10/23 07:35:18;;;;;;;45.30;14.40;;;4.90;99.90;;;;;;4961778;28;20094;-68
2021/10/23 07:37:46;;;;;;;39.38;13.70;;;5.10;99.90;;;;;;4958376;29;20451;-68
2021/10/23 07:40:26;;;;;;;42.33;14.82;;;5.20;99.90;;;;;;4960119;29;20027;-68
2021/10/23 07:42:53;;;;;;;36.42;13.80;;;5.30;99.90;;;;;;4959886;29;20023;-68
2021/10/23 07:45:21;;;;;;;36.25;12.77;;;5.40;99.90;;;;;;4958506;29;20031;-67
2021/10/23 07:47:49;;;;;;;34.85;13.55;;;5.50;99.90;;;;;;4959381;28;20055;-68
2021/10/23 07:50:19;;;;;;;25.88;11.68;;;5.60;99.90;;;;;;4959560;28;20051;-68
2021/10/23 07:52:46;;;;;;;29.55;11.90;;;5.70;99.90;;;;;;4959087;29;20103;-68
2021/10/23 07:55:15;;;;;;;24.50;11.50;;;5.80;99.90;;;;;;4959910;29;20023;-68
2021/10/23 07:57:42;;;;;;;24.73;11.35;;;5.90;99.90;;;;;;4960062;28;20023;-68
2021/10/23 08:00:14;;;;;;;21.00;9.10;;;6.00;99.90;;;;;;4959941;29;20031;-68
2021/10/23 08:03:00;;;;;;;23.15;9.43;;;6.00;99.90;;;;;;4959016;28;20031;-68
2021/10/23 08:05:32;;;;;;;18.05;9.32;;;6.10;99.90;;;;;;4959618;28;20133;-68
2021/10/23 08:08:03;;;;;;;23.33;11.27;;;6.10;99.90;;;;;;4959525;28;20305;-68
2021/10/23 08:10:32;;;;;;;27.05;10.30;;;6.20;99.90;;;;;;4959749;29;20392;-68
2021/10/23 08:13:00;;;;;;;25.08;10.20;;;6.20;99.90;;;;;;4959755;29;20307;-68
2021/10/23 08:15:28;;;;;;;22.88;9.38;;;6.20;99.90;;;;;;4959737;29;20024;-68
2021/10/23 08:17:58;;;;;;;24.98;9.85;;;6.30;99.90;;;;;;4959359;28;20023;-69
2021/10/23 08:20:33;;;;;;;23.38;9.40;;;6.30;99.90;;;;;;4959229;28;20023;-68
2021/10/23 08:23:02;;;;;;;23.35;10.30;;;6.40;99.90;;;;;;4959263;29;20031;-68
2021/10/23 08:25:30;;;;;;;22.83;9.02;;;6.40;99.90;;;;;;4959712;29;20435;-68
2021/10/23 08:27:57;;;;;;;26.27;10.85;;;6.40;99.90;;;;;;4959238;28;20039;-68
2021/10/23 08:30:25;;;;;;;24.63;10.45;;;6.40;99.90;;;;;;4959161;29;20111;-68
2021/10/23 08:32:54;;;;;;;25.50;10.40;;;6.40;99.90;;;;;;4962036;28;20042;-68
2021/10/23 08:35:22;;;;;;;20.77;8.82;;;6.40;99.90;;;;;;4963365;29;20034;-68
2021/10/23 08:37:51;;;;;;;22.95;10.23;;;6.40;99.90;;;;;;4976247;28;20058;-68
2021/10/23 08:40:19;;;;;;;21.77;8.82;;;6.50;99.90;;;;;;4982167;28;20031;-68
2021/10/23 08:42:47;;;;;;;23.00;10.35;;;6.40;99.90;;;;;;4982384;28;20022;-68
2021/10/23 08:45:16;;;;;;;18.77;9.48;;;6.40;99.90;;;;;;4982234;28;20110;-68
2021/10/23 08:47:45;;;;;;;17.25;8.10;;;6.40;99.90;;;;;;4981672;28;20033;-68
2021/10/23 08:50:16;;;;;;;17.88;8.88;;;6.40;99.90;;;;;;4964897;28;20030;-68
2021/10/23 08:52:59;;;;;;;20.98;9.48;;;6.40;99.90;;;;;;4982033;28;20050;-68
2021/10/23 08:55:28;;;;;;;25.17;10.45;;;6.40;99.90;;;;;;4981731;28;20106;-68
2021/10/23 08:57:57;;;;;;;20.33;10.52;;;6.50;99.90;;;;;;4981941;28;20023;-68
2021/10/23 09:00:25;;;;;;;19.90;9.52;;;6.60;99.90;;;;;;4982467;28;20026;-68
2021/10/23 09:02:53;;;;;;;25.67;10.55;;;6.70;99.90;;;;;;4981780;28;20490;-68
2021/10/23 09:05:36;;;;;;;21.65;8.20;;;6.80;99.90;;;;;;4982386;28;20511;-68
2021/10/23 09:08:17;;;;;;;27.55;9.70;;;6.90;99.90;;;;;;4982307;28;20066;-68
2021/10/23 09:10:57;;;;;;;20.75;8.63;;;6.80;99.90;;;;;;4981691;28;20026;-68
2021/10/23 09:13:37;;;;;;;20.00;9.15;;;6.80;99.90;;;;;;4981507;28;20031;-68
2021/10/23 09:16:19;;;;;;;16.20;8.82;;;6.80;99.90;;;;;;4981681;28;20030;-68
2021/10/23 09:18:49;;;;;;;25.63;10.52;;;6.80;99.90;;;;;;4981453;28;20031;-67
2021/10/23 09:21:24;;;;;;;26.38;8.43;;;6.90;99.90;;;;;;4981617;28;20030;-68
2021/10/23 09:23:54;;;;;;;20.17;7.60;;;6.90;99.90;;;;;;4981993;28;20077;-67
2021/10/23 09:26:38;;;;;;;15.52;6.68;;;7.00;99.90;;;;;;4964588;28;20061;-67
2021/10/23 09:29:20;;;;;;;14.80;6.15;;;7.20;99.90;;;;;;4980422;28;20026;-70
2021/10/23 09:31:49;;;;;;;14.15;6.68;;;7.30;99.90;;;;;;4964104;28;20419;-69
2021/10/23 09:34:18;;;;;;;16.85;6.03;;;7.50;99.90;;;;;;4981221;28;20330;-69
2021/10/23 09:36:54;;;;;;;18.60;6.50;;;7.60;99.90;;;;;;4981544;28;20126;-69
2021/10/23 09:39:34;;;;;;;15.50;7.32;;;7.80;99.90;;;;;;4963984;28;20041;-69
2021/10/23 09:42:19;;;;;;;19.08;6.55;;;7.90;99.90;;;;;;4981153;28;20449;-69
2021/10/23 09:45:03;;;;;;;23.50;6.32;;;8.10;99.90;;;;;;4980087;28;20034;-69
2021/10/23 09:47:41;;;;;;;17.35;6.65;;;8.10;99.90;;;;;;4980998;28;20027;-69
2021/10/23 09:50:18;;;;;;;17.10;6.38;;;8.30;99.90;;;;;;4980953;28;20035;-68
2021/10/23 09:53:05;;;;;;;21.05;5.50;;;8.30;99.90;;;;;;4980878;28;20335;-69
2021/10/23 09:55:52;;;;;;;20.95;6.82;;;8.40;99.90;;;;;;4981174;28;20037;-69
2021/10/23 09:58:22;;;;;;;17.02;6.38;;;8.50;99.90;;;;;;4980920;28;20030;-69
2021/10/23 10:00:51;;;;;;;15.10;5.63;;;8.50;99.90;;;;;;4963554;28;20070;-69
2021/10/23 10:03:20;;;;;;;17.60;5.47;;;8.60;99.90;;;;;;4981267;28;20015;-68
2021/10/23 10:05:53;;;;;;;15.70;5.07;;;8.70;99.90;;;;;;4980743;28;20022;-69
2021/10/23 10:08:22;;;;;;;12.52;4.70;;;8.80;99.90;;;;;;4963406;28;20446;-69
2021/10/23 10:10:58;;;;;;;13.65;4.90;;;8.80;99.90;;;;;;4980505;28;20082;-69
2021/10/23 10:13:27;;;;;;;15.48;5.35;;;8.90;99.90;;;;;;4980293;28;20422;-68
2021/10/23 10:15:58;;;;;;;11.98;5.60;;;9.00;99.90;;;;;;4980464;28;20031;-68
2021/10/23 10:18:26;;;;;;;11.48;5.13;;;9.00;99.90;;;;;;4981132;28;20438;-68
2021/10/23 10:20:56;;;;;;;16.85;6.32;;;9.10;99.90;;;;;;4981134;28;20053;-69
2021/10/23 10:23:35;;;;;;;15.07;5.60;;;9.10;99.90;;;;;;4980902;28;20034;-69
2021/10/23 10:26:28;;;;;;;17.63;6.30;;;9.10;99.90;;;;;;4980610;28;20037;-65
2021/10/23 10:29:34;;;;;;;17.45;5.38;;;9.20;99.90;;;;;;4980272;28;20109;-67
2021/10/23 10:32:27;;;;;;;14.02;4.57;;;9.30;99.90;;;;;;4980170;28;20027;-66
2021/10/23 10:35:18;;;;;;;22.63;5.45;;;9.40;99.90;;;;;;4980713;28;20023;-66
2021/10/23 10:40:56;;;;;;;16.83;4.80;;;9.50;99.90;;;;;;4980257;28;20034;-66
2021/10/23 10:43:25;;;;;;;15.85;4.45;;;9.50;99.90;;;;;;4979993;28;20034;-66
2021/10/23 10:45:55;;;;;;;14.45;4.97;;;9.60;99.90;;;;;;4980611;28;20405;-66
2021/10/23 10:48:35;;;;;;;18.10;4.35;;;9.50;99.90;;;;;;4979996;28;20108;-66
2021/10/23 10:51:17;;;;;;;16.90;5.20;;;9.60;99.90;;;;;;4980885;28;20031;-67
2021/10/23 10:53:51;;;;;;;10.80;4.40;;;9.60;99.90;;;;;;4979880;28;20110;-69
2021/10/23 10:56:19;;;;;;;14.02;4.22;;;9.70;99.90;;;;;;4961821;28;20471;-65
2021/10/23 10:58:48;;;;;;;8.60;3.20;;;9.80;99.90;;;;;;4979736;28;20481;-66
2021/10/23 11:01:25;;;;;;;13.50;3.55;;;9.90;99.90;;;;;;4962474;28;20058;-66
2021/10/23 11:04:07;;;;;;;8.73;2.78;;;10.10;99.90;;;;;;4979643;28;20037;-66
2021/10/23 11:06:35;;;;;;;7.72;3.10;;;10.10;99.90;;;;;;4979788;28;20038;-66
2021/10/23 11:11:47;;;;;;;6.60;2.38;;;10.40;99.90;;;;;;4979428;28;20114;-68
2021/10/23 11:14:24;;;;;;;11.25;2.35;;;10.40;99.90;;;;;;4979948;28;20402;-65
2021/10/23 11:16:59;;;;;;;7.47;1.90;;;10.40;99.90;;;;;;4979768;28;20363;-65
2021/10/23 11:19:42;;;;;;;6.63;2.30;;;10.40;99.90;;;;;;4979934;28;20029;-65
2021/10/23 11:22:21;;;;;;;6.93;2.08;;;10.40;99.90;;;;;;4979896;28;20101;-65
2021/10/23 11:24:51;;;;;;;12.20;2.72;;;10.50;99.90;;;;;;4980018;28;20367;-65
2021/10/23 11:27:36;;;;;;;8.75;2.05;;;10.50;99.90;;;;;;4979346;28;20318;-65
2021/10/23 11:30:12;;;;;;;9.32;2.58;;;10.50;99.90;;;;;;4979734;28;20345;-65
2021/10/23 11:32:49;;;;;;;7.38;2.03;;;10.50;99.90;;;;;;4979672;28;20027;-65
2021/10/23 11:35:16;;;;;;;8.63;2.30;;;10.50;99.90;;;;;;4979059;28;20026;-65
2021/10/23 11:37:43;;;;;;;6.88;1.98;;;10.60;99.90;;;;;;4978993;28;20478;-65
2021/10/23 11:40:12;;;;;;;8.15;2.75;;;10.60;99.90;;;;;;4961832;28;20407;-65
2021/10/23 11:42:51;;;;;;;11.52;2.65;;;10.60;99.90;;;;;;4961916;28;20117;-65
2021/10/23 11:45:20;;;;;;;10.70;3.08;;;10.70;99.90;;;;;;4961770;28;20085;-65
2021/10/23 11:47:56;;;;;;;5.68;1.77;;;10.80;99.90;;;;;;4979013;28;20342;-65
2021/10/23 11:50:28;;;;;;;10.07;2.30;;;10.80;99.90;;;;;;4978696;28;20027;-65
2021/10/23 11:53:04;;;;;;;11.95;2.08;;;10.90;99.90;;;;;;4979131;28;20026;-65
2021/10/23 11:55:35;;;;;;;6.23;1.30;;;11.00;99.90;;;;;;4978798;28;20023;-65
2021/10/23 11:58:08;;;;;;;8.65;2.08;;;11.00;99.90;;;;;;4979444;28;20058;-65
2021/10/23 12:00:42;;;;;;;11.50;2.45;;;11.00;99.90;;;;;;4978680;28;20041;-66
2021/10/23 12:03:28;;;;;;;11.68;2.75;;;10.90;99.90;;;;;;4978885;28;20323;-64
2021/10/23 12:05:56;;;;;;;10.13;2.27;;;11.00;99.90;;;;;;4978221;28;20054;-74
2021/10/23 12:08:29;;;;;;;6.25;1.85;;;11.10;99.90;;;;;;4978658;28;20023;-65
2021/10/23 12:11:19;;;;;;;14.02;2.25;;;11.10;99.90;;;;;;4979167;28;20030;-65
2021/10/23 12:13:54;;;;;;;9.18;2.08;;;11.10;99.90;;;;;;4978594;28;20292;-65
2021/10/23 12:16:44;;;;;;;8.07;1.65;;;11.10;99.90;;;;;;4978629;28;20026;-65
2021/10/23 12:19:16;;;;;;;9.93;2.50;;;11.10;99.90;;;;;;4978783;28;20035;-65
2021/10/23 12:21:46;;;;;;;9.25;2.28;;;11.10;99.90;;;;;;4978681;28;20023;-65
2021/10/23 12:24:32;;;;;;;11.63;2.20;;;11.20;99.90;;;;;;4977832;28;20059;-65
2021/10/23 12:27:24;;;;;;;9.77;2.15;;;11.10;99.90;;;;;;4961369;28;20118;-65
2021/10/23 12:30:03;;;;;;;8.30;1.95;;;11.10;99.90;;;;;;4978436;28;20034;-65
2021/10/23 12:32:38;;;;;;;10.35;2.70;;;11.10;99.90;;;;;;4978500;28;20055;-65
2021/10/23 12:35:25;;;;;;;8.68;2.22;;;11.20;99.90;;;;;;4978888;28;20415;-65
2021/10/23 12:38:01;;;;;;;8.68;1.92;;;11.20;99.90;;;;;;4957857;29;20135;-65
2021/10/23 12:40:31;;;;;;;11.18;2.47;;;11.30;99.90;;;;;;4959357;28;20106;-66
2021/10/23 12:43:06;;;;;;;9.95;2.38;;;11.30;99.90;;;;;;4959654;28;20023;-65
2021/10/23 12:45:46;;;;;;;8.52;2.90;;;11.30;99.90;;;;;;4959649;28;20061;-65
2021/10/23 12:48:15;;;;;;;12.52;2.20;;;11.30;99.90;;;;;;4958836;28;20059;-65
2021/10/23 12:50:45;;;;;;;8.88;2.25;;;11.30;99.90;;;;;;4959049;29;20023;-64
2021/10/23 12:53:14;;;;;;;7.93;1.92;;;11.30;99.90;;;;;;4958794;28;20059;-64
2021/10/23 12:55:42;;;;;;;7.55;1.52;;;11.30;99.90;;;;;;4959518;28;20020;-64
2021/10/23 12:58:09;;;;;;;6.95;3.13;;;11.30;99.90;;;;;;4958914;28;20031;-65
2021/10/23 13:00:40;;;;;;;9.13;2.03;;;11.20;99.90;;;;;;4958040;29;20027;-64
2021/10/23 13:03:09;;;;;;;6.80;2.40;;;11.20;99.90;;;;;;4959371;29;20478;-64
2021/10/23 13:05:37;;;;;;;6.80;1.65;;;11.20;99.90;;;;;;4958627;28;20038;-64